Punta Galea, Euskadi

latitud = 43° 22' 30''N | longitud = 003° 01' 10''W
90 metros sobre el nivel del mar | datos mensuales

Fecha, hora, temperatura, viento dirección y velocidad, humedad y presión.

  • 21-06-2018 22:00:00 | 18.80°C | Noroeste |15.00 km/h | 96.00% | 1012.50 hPa
  • 21-06-2018 21:00:00 | 19.10°C | Noroeste |14.00 km/h | 96.00% | 1012.10 hPa
  • 21-06-2018 20:00:00 | 19.60°C | Noroeste |13.00 km/h | 95.00% | 1012.20 hPa
  • 21-06-2018 19:00:00 | 21.10°C | Noroeste |7.00 km/h | 92.00% | 1011.50 hPa
  • 21-06-2018 18:00:00 | 20.60°C | Noroeste |8.00 km/h | 90.00% | 1011.70 hPa
  • 21-06-2018 17:00:00 | 20.80°C | Noroeste |10.00 km/h | 89.00% | 1011.60 hPa
  • 21-06-2018 16:00:00 | 20.30°C | Noroeste |13.00 km/h | 92.00% | 1011.60 hPa
  • 21-06-2018 15:00:00 | 19.80°C | Noroeste |14.00 km/h | 92.00% | 1011.90 hPa
  • 21-06-2018 14:00:00 | 20.10°C | Noroeste |12.00 km/h | 91.00% | 1011.90 hPa
  • 21-06-2018 13:00:00 | 19.60°C | Noroeste |12.00 km/h | 94.00% | 1011.80 hPa
  • 21-06-2018 12:00:00 | 19.60°C | Noroeste |8.00 km/h | 94.00% | 1011.70 hPa
  • 21-06-2018 11:00:00 | 20.00°C | Norte |4.00 km/h | 95.00% | 1011.10 hPa
  • 21-06-2018 10:00:00 | 19.50°C | Norte |4.00 km/h | 95.00% | 1010.90 hPa
  • 21-06-2018 09:00:00 | 19.70°C | Calma |0.00 km/h | 95.00% | 1010.60 hPa
  • 21-06-2018 08:00:00 | 18.80°C | Noroeste |4.00 km/h | 95.00% | 1010.70 hPa
  • 21-06-2018 07:00:00 | 18.70°C | Noroeste |6.00 km/h | 95.00% | 1010.70 hPa
  • 21-06-2018 06:00:00 | 18.60°C | Noroeste |3.00 km/h | 95.00% | 1010.70 hPa
  • 21-06-2018 05:00:00 | 18.80°C | Oeste |4.00 km/h | 95.00% | 1010.70 hPa
  • 21-06-2018 04:00:00 | 19.00°C | Noroeste |6.00 km/h | 95.00% | 1010.80 hPa
  • 21-06-2018 03:00:00 | 18.80°C | Noroeste |7.00 km/h | 95.00% | 1010.80 hPa
  • 21-06-2018 02:00:00 | 18.80°C | Noroeste |8.00 km/h | 95.00% | 1011.10 hPa
  • 21-06-2018 01:00:00 | 18.90°C | Noroeste |9.00 km/h | 95.00% | 1011.30 hPa
  • 21-06-2018 00:00:00 | 18.90°C | Noroeste |12.00 km/h | 95.00% | 1011.10 hPa
  • 20-06-2018 23:00:00 | 19.10°C | Noroeste |8.00 km/h | 95.00% | 1010.40 hPa